createdAt,value
2023-04-26T00:00:10.051Z,96223.25
2023-04-26T00:02:38.621Z,96225.47
2023-04-26T00:05:09.389Z,96213.88
2023-04-26T00:07:39.371Z,96216.56
2023-04-26T00:10:08.589Z,96220.31
2023-04-26T00:12:37.492Z,96209.22
2023-04-26T00:15:06.569Z,96207.41
2023-04-26T00:17:35.039Z,96208.50
2023-04-26T00:20:04.696Z,96215.72
2023-04-26T00:22:33.039Z,96214.00
2023-04-26T00:25:02.657Z,96209.09
2023-04-26T00:27:30.939Z,96215.28
2023-04-26T00:29:59.218Z,96209.34
2023-04-26T00:32:27.534Z,96210.19
2023-04-26T00:34:55.907Z,96216.56
2023-04-26T00:37:24.896Z,96207.63
2023-04-26T00:39:53.202Z,96196.44
2023-04-26T00:42:22.857Z,96201.34
2023-04-26T00:44:55.206Z,96199.72
2023-04-26T00:47:23.473Z,96212.22
2023-04-26T00:49:51.848Z,96211.41
2023-04-26T00:52:20.160Z,96218.16
2023-04-26T00:54:49.606Z,96209.34
2023-04-26T00:57:18.037Z,96209.47
2023-04-26T00:59:47.658Z,96212.41
2023-04-26T01:02:16.147Z,96215.41
2023-04-26T01:04:45.730Z,96222.81
2023-04-26T01:07:14.047Z,96218.38
2023-04-26T01:09:43.124Z,96205.47
2023-04-26T01:12:12.387Z,96214.78
2023-04-26T01:14:41.114Z,96214.91
2023-04-26T01:17:10.890Z,96214.72
2023-04-26T01:19:48.192Z,96218.88
2023-04-26T01:22:16.576Z,96226.13
2023-04-26T01:24:48.710Z,96219.97
2023-04-26T01:27:17.677Z,96218.41
2023-04-26T01:29:46.279Z,96229.88
2023-04-26T01:32:14.525Z,96221.56
2023-04-26T01:34:42.794Z,96222.13
2023-04-26T01:37:11.548Z,96223.50
2023-04-26T01:39:39.864Z,96226.63
2023-04-26T01:42:09.472Z,96224.34
2023-04-26T01:44:37.743Z,96224.94
2023-04-26T01:47:06.157Z,96235.13
2023-04-26T01:49:34.557Z,96230.91
2023-04-26T01:52:03.233Z,96226.34
2023-04-26T01:54:31.604Z,96227.88
2023-04-26T01:56:59.866Z,96234.88
2023-04-26T01:59:29.524Z,96229.13
2023-04-26T02:01:57.764Z,96241.41
2023-04-26T02:04:26.653Z,96231.66
2023-04-26T02:06:54.962Z,96238.09
2023-04-26T02:09:23.183Z,96237.94
2023-04-26T02:11:51.495Z,96228.00
2023-04-26T02:14:20.337Z,96237.41
2023-04-26T02:16:49.947Z,96232.44
2023-04-26T02:19:18.183Z,96245.53
2023-04-26T02:21:53.746Z,96237.13
2023-04-26T02:24:23.201Z,96242.53
2023-04-26T02:26:51.853Z,96240.41
2023-04-26T02:29:26.883Z,96228.41
2023-04-26T02:32:06.332Z,96238.28
2023-04-26T02:34:34.718Z,96236.28
2023-04-26T02:37:04.239Z,96233.81
2023-04-26T02:39:32.709Z,96233.97
2023-04-26T02:42:00.975Z,96230.16
2023-04-26T02:44:30.945Z,96228.31
2023-04-26T02:46:59.331Z,96231.78
2023-04-26T02:49:29.232Z,96228.59
2023-04-26T02:51:57.653Z,96229.50
2023-04-26T02:54:25.883Z,96226.03
2023-04-26T02:56:55.365Z,96229.34
2023-04-26T02:59:23.618Z,96221.56
2023-04-26T03:01:51.926Z,96218.41
2023-04-26T03:04:20.772Z,96213.56
2023-04-26T03:06:50.558Z,96219.78
2023-04-26T03:09:18.942Z,96224.06
2023-04-26T03:11:49.600Z,96223.34
2023-04-26T03:14:18.444Z,96230.69
2023-04-26T03:16:48.423Z,96235.63
2023-04-26T03:19:16.796Z,96243.38
2023-04-26T03:21:45.086Z,96245.41
2023-04-26T03:24:14.705Z,96243.41
2023-04-26T03:26:42.964Z,96245.53
2023-04-26T03:29:12.511Z,96244.88
2023-04-26T03:31:40.929Z,96252.97
2023-04-26T03:34:09.350Z,96241.41
2023-04-26T03:36:38.260Z,96241.41
2023-04-26T03:39:06.850Z,96250.84
2023-04-26T03:41:39.614Z,96250.53
2023-04-26T03:44:08.148Z,96245.09
2023-04-26T03:46:36.516Z,96253.63
2023-04-26T03:49:04.821Z,96250.84
2023-04-26T03:51:33.072Z,96249.19
2023-04-26T03:54:01.337Z,96248.53
2023-04-26T03:56:29.628Z,96253.97
2023-04-26T03:58:59.260Z,96247.88
2023-04-26T04:01:27.895Z,96246.84
2023-04-26T04:03:56.602Z,96253.69
2023-04-26T04:06:25.195Z,96252.66
2023-04-26T04:08:53.813Z,96256.81
2023-04-26T04:11:23.310Z,96256.56
2023-04-26T04:13:51.594Z,96260.16
2023-04-26T04:16:21.824Z,96255.69
2023-04-26T04:18:50.557Z,96253.28
2023-04-26T04:21:18.999Z,96258.59
2023-04-26T04:23:47.814Z,96271.03
2023-04-26T04:26:16.181Z,96269.72
2023-04-26T04:28:45.573Z,96276.63
2023-04-26T04:31:14.027Z,96270.56
2023-04-26T04:33:43.662Z,96270.19
2023-04-26T04:36:11.928Z,96271.03
2023-04-26T04:38:40.206Z,96267.53
2023-04-26T04:41:08.707Z,96270.88
2023-04-26T04:43:37.215Z,96275.97
2023-04-26T04:46:05.562Z,96278.34
2023-04-26T04:48:34.259Z,96290.84
2023-04-26T04:51:04.142Z,96284.78
2023-04-26T04:53:32.407Z,96293.47
2023-04-26T04:56:00.815Z,96294.84
2023-04-26T04:58:29.109Z,96292.91
2023-04-26T05:01:01.271Z,96302.16
2023-04-26T05:03:30.068Z,96305.75
2023-04-26T05:05:58.504Z,96304.88
2023-04-26T05:08:28.126Z,96304.38
2023-04-26T05:10:56.866Z,96311.75
2023-04-26T05:13:25.219Z,96311.84
2023-04-26T05:15:53.917Z,96305.47
2023-04-26T05:18:22.223Z,96317.97
2023-04-26T05:20:50.578Z,96322.94
2023-04-26T05:23:18.819Z,96316.00
2023-04-26T05:25:48.461Z,96312.94
2023-04-26T05:28:16.727Z,96322.97
2023-04-26T05:30:45.023Z,96324.91
2023-04-26T05:33:13.781Z,96319.59
2023-04-26T05:35:42.101Z,96323.84
2023-04-26T05:38:10.413Z,96328.81
2023-04-26T05:40:38.625Z,96318.06
2023-04-26T05:43:08.421Z,96329.59
2023-04-26T05:45:36.729Z,96331.09
2023-04-26T05:48:05.477Z,96333.41
2023-04-26T05:50:33.897Z,96329.47
2023-04-26T05:53:02.119Z,96324.47
2023-04-26T05:55:30.729Z,96332.41
2023-04-26T05:57:59.337Z,96330.94
2023-04-26T06:00:29.157Z,96330.16
2023-04-26T06:02:57.576Z,96336.59
2023-04-26T06:05:26.085Z,96334.63
2023-04-26T06:07:54.533Z,96336.72
2023-04-26T06:10:22.878Z,96341.22
2023-04-26T06:12:51.201Z,96344.94
2023-04-26T06:15:19.632Z,96345.06
2023-04-26T06:17:49.260Z,96342.47
2023-04-26T06:20:17.524Z,96356.97
2023-04-26T06:22:45.873Z,96357.13
2023-04-26T06:25:14.467Z,96350.25
2023-04-26T06:27:42.734Z,96352.31
2023-04-26T06:30:11.879Z,96338.81
2023-04-26T06:32:41.773Z,96339.41
2023-04-26T06:35:11.889Z,96340.03
2023-04-26T06:37:40.259Z,96341.97
2023-04-26T06:40:09.773Z,96349.03
2023-04-26T06:42:38.061Z,96343.25
2023-04-26T06:45:07.193Z,96346.50
2023-04-26T06:47:35.509Z,96344.44
2023-04-26T06:50:04.697Z,96349.59
2023-04-26T06:52:34.428Z,96349.06
2023-04-26T06:55:03.401Z,96351.91
2023-04-26T06:57:31.653Z,96358.69
2023-04-26T06:59:59.910Z,96360.88
2023-04-26T07:02:28.257Z,96358.16
2023-04-26T07:04:57.764Z,96353.94
2023-04-26T07:07:26.272Z,96356.16
2023-04-26T07:09:55.934Z,96350.78
2023-04-26T07:12:24.169Z,96359.59
2023-04-26T07:14:52.447Z,96358.44
2023-04-26T07:17:21.599Z,96356.53
2023-04-26T07:19:49.869Z,96366.28
2023-04-26T07:22:18.139Z,96355.97
2023-04-26T07:24:46.418Z,96345.75
2023-04-26T07:27:16.358Z,96342.19
2023-04-26T07:29:44.580Z,96342.53
2023-04-26T07:32:13.204Z,96353.75
2023-04-26T07:34:41.975Z,96347.84
2023-04-26T07:37:10.272Z,96351.06
2023-04-26T07:39:38.480Z,96342.13
2023-04-26T07:42:07.256Z,96344.44
2023-04-26T07:44:36.965Z,96337.19
2023-04-26T07:47:05.274Z,96338.72
2023-04-26T07:49:33.521Z,96337.41
2023-04-26T07:52:02.477Z,96349.81
2023-04-26T07:54:31.021Z,96345.09
2023-04-26T07:56:59.224Z,96341.03
2023-04-26T07:59:27.515Z,96343.38
2023-04-26T08:01:57.272Z,96345.88
2023-04-26T08:04:32.830Z,96342.38
2023-04-26T08:07:02.378Z,96346.31
2023-04-26T08:09:31.062Z,96339.94
2023-04-26T08:11:59.408Z,96353.13
2023-04-26T08:14:28.765Z,96338.75
2023-04-26T08:16:58.465Z,96346.50
2023-04-26T08:19:26.881Z,96342.63
2023-04-26T08:21:55.104Z,96343.53
2023-04-26T08:24:23.581Z,96342.16
2023-04-26T08:26:51.964Z,96346.19
2023-04-26T08:29:20.686Z,96347.66
2023-04-26T08:31:48.932Z,96348.66
2023-04-26T08:34:18.567Z,96345.97
2023-04-26T08:36:47.136Z,96352.91
2023-04-26T08:39:15.393Z,96341.00
2023-04-26T08:41:44.804Z,96346.00
2023-04-26T08:44:13.074Z,96348.88
2023-04-26T08:46:47.828Z,96339.22
2023-04-26T08:49:24.121Z,96333.88
2023-04-26T08:51:52.759Z,96331.75
2023-04-26T08:54:21.325Z,96339.69
2023-04-26T08:56:50.190Z,96334.66
2023-04-26T08:59:18.880Z,96339.22
2023-04-26T09:01:47.287Z,96340.03
2023-04-26T09:04:15.782Z,96334.66
2023-04-26T09:06:45.757Z,96332.22
2023-04-26T09:09:14.988Z,96331.38
2023-04-26T09:11:56.728Z,96334.50
2023-04-26T09:14:25.666Z,96329.50
2023-04-26T09:16:54.432Z,96336.31
2023-04-26T09:19:37.012Z,96326.19
2023-04-26T09:22:07.534Z,96325.03
2023-04-26T09:24:48.073Z,96332.63
2023-04-26T09:27:16.754Z,96331.75
2023-04-26T09:29:58.833Z,96330.38
2023-04-26T09:32:27.200Z,96325.66
2023-04-26T09:34:55.702Z,96331.19
2023-04-26T09:37:25.321Z,96334.44
2023-04-26T09:39:54.172Z,96325.00
2023-04-26T09:42:22.435Z,96324.19
2023-04-26T09:44:51.859Z,96328.50
2023-04-26T09:47:23.301Z,96322.78
2023-04-26T09:49:52.685Z,96330.31
2023-04-26T09:52:21.694Z,96337.34
2023-04-26T09:54:53.186Z,96343.72
2023-04-26T09:57:23.674Z,96339.34
2023-04-26T09:59:55.056Z,96342.41
2023-04-26T10:02:25.289Z,96344.25
2023-04-26T10:04:55.192Z,96339.53
2023-04-26T10:07:25.589Z,96329.34
2023-04-26T10:09:55.963Z,96328.31
2023-04-26T10:12:24.398Z,96341.22
2023-04-26T10:14:52.717Z,96337.00
2023-04-26T10:17:21.886Z,96316.47
2023-04-26T10:19:53.275Z,96329.75
2023-04-26T10:22:23.972Z,96319.25
2023-04-26T10:24:53.183Z,96322.34
2023-04-26T10:27:50.198Z,96321.00
2023-04-26T10:30:20.094Z,96319.91
2023-04-26T10:33:14.804Z,96322.16
2023-04-26T10:36:06.006Z,96329.00
2023-04-26T10:38:34.863Z,96325.06
2023-04-26T10:41:31.967Z,96326.31
2023-04-26T10:44:21.122Z,96323.09
2023-04-26T10:46:52.713Z,96319.09
2023-04-26T10:49:24.934Z,96316.28
2023-04-26T10:52:23.051Z,96310.13
2023-04-26T10:54:56.287Z,96316.13
2023-04-26T10:57:27.045Z,96311.31
2023-04-26T11:00:32.694Z,96306.78
2023-04-26T11:03:06.575Z,96303.53
2023-04-26T11:05:43.980Z,96311.81
2023-04-26T11:08:17.603Z,96304.63
2023-04-26T11:10:50.763Z,96296.84
2023-04-26T11:13:19.525Z,96291.38
2023-04-26T11:15:53.843Z,96283.50
2023-04-26T11:18:22.567Z,96292.16
2023-04-26T11:20:50.852Z,96286.59
2023-04-26T11:23:19.536Z,96275.97
2023-04-26T11:25:48.528Z,96273.00
2023-04-26T11:28:16.998Z,96269.63
2023-04-26T11:30:45.359Z,96264.47
2023-04-26T11:33:20.192Z,96252.75
2023-04-26T11:35:48.968Z,96265.09
2023-04-26T11:38:17.699Z,96259.03
2023-04-26T11:40:46.161Z,96253.41
2023-04-26T11:43:15.547Z,96249.28
2023-04-26T11:45:44.200Z,96253.88
2023-04-26T11:48:13.767Z,96251.59
2023-04-26T11:50:43.666Z,96254.31
2023-04-26T11:53:11.954Z,96253.00
2023-04-26T11:55:41.870Z,96255.53
2023-04-26T11:58:12.546Z,96261.31
2023-04-26T12:00:59.067Z,96251.00
2023-04-26T12:03:32.316Z,96255.31
2023-04-26T12:06:02.279Z,96260.69
2023-04-26T12:08:30.985Z,96257.22
2023-04-26T12:11:01.955Z,96259.88
2023-04-26T12:13:30.693Z,96260.25
2023-04-26T12:15:59.100Z,96264.81
2023-04-26T12:18:32.450Z,96261.47
2023-04-26T12:21:02.602Z,96264.06
2023-04-26T12:23:39.337Z,96288.34
2023-04-26T12:26:11.029Z,96277.41
2023-04-26T12:28:39.765Z,96272.09
2023-04-26T12:31:08.403Z,96261.69
2023-04-26T12:33:37.513Z,96261.31
2023-04-26T12:36:11.812Z,96256.13
2023-04-26T12:38:40.599Z,96255.28
2023-04-26T12:43:37.131Z,96240.13
2023-04-26T12:46:05.695Z,96253.66
2023-04-26T12:48:34.061Z,96252.88
2023-04-26T12:51:02.387Z,96256.63
2023-04-26T12:53:32.258Z,96252.13
2023-04-26T12:56:00.789Z,96240.22
2023-04-26T12:58:29.177Z,96239.50
2023-04-26T13:00:57.737Z,96241.34
2023-04-26T13:03:26.484Z,96240.50
2023-04-26T13:05:54.870Z,96248.03
2023-04-26T13:08:24.359Z,96228.78
2023-04-26T13:10:53.952Z,96224.53
2023-04-26T13:13:29.251Z,96219.56
2023-04-26T13:16:04.526Z,96226.63
2023-04-26T13:18:32.782Z,96218.81
2023-04-26T13:21:01.086Z,96225.84
2023-04-26T13:23:29.350Z,96220.25
2023-04-26T13:25:59.098Z,96221.22
2023-04-26T13:28:27.411Z,96219.53
2023-04-26T13:30:56.026Z,96218.63
2023-04-26T13:33:24.433Z,96213.69
2023-04-26T13:35:53.070Z,96216.94
2023-04-26T13:38:21.476Z,96218.63
2023-04-26T13:40:49.790Z,96225.06
2023-04-26T13:43:19.484Z,96217.63
2023-04-26T13:45:47.931Z,96221.06
2023-04-26T13:48:16.643Z,96200.59
2023-04-26T13:50:45.122Z,96201.94
2023-04-26T13:53:13.405Z,96197.75
2023-04-26T13:55:42.125Z,96193.44
2023-04-26T13:58:10.450Z,96195.19
2023-04-26T14:00:40.037Z,96196.41
2023-04-26T14:03:08.500Z,96197.66
2023-04-26T14:05:37.006Z,96198.97
2023-04-26T14:08:06.101Z,96193.28
2023-04-26T14:10:34.443Z,96201.22
2023-04-26T14:13:02.749Z,96207.69
2023-04-26T14:15:31.120Z,96208.38
2023-04-26T14:18:01.151Z,96196.19
2023-04-26T14:20:29.999Z,96204.59
2023-04-26T14:22:58.694Z,96213.44
2023-04-26T14:25:27.420Z,96193.25
2023-04-26T14:27:55.865Z,96194.06
2023-04-26T14:30:24.735Z,96202.22
2023-04-26T14:32:53.134Z,96194.06
2023-04-26T14:35:22.816Z,96208.16
2023-04-26T14:37:51.169Z,96193.38
2023-04-26T14:40:19.694Z,96193.81
2023-04-26T14:42:47.942Z,96196.00
2023-04-26T14:45:16.446Z,96199.22
2023-04-26T14:47:44.811Z,96194.34
2023-04-26T14:50:14.105Z,96190.59
2023-04-26T14:52:43.783Z,96195.94
2023-04-26T14:55:12.179Z,96196.22
2023-04-26T14:57:41.837Z,96185.97
2023-04-26T15:00:15.396Z,96194.31
2023-04-26T15:02:44.004Z,96203.91
2023-04-26T15:05:12.973Z,96197.00
2023-04-26T15:07:42.982Z,96201.75
2023-04-26T15:10:11.409Z,96188.78
2023-04-26T15:12:39.679Z,96192.13
2023-04-26T15:15:09.097Z,96190.56
2023-04-26T15:17:37.577Z,96191.91
2023-04-26T15:20:07.328Z,96194.13
2023-04-26T15:22:38.594Z,96192.50
2023-04-26T15:25:10.986Z,96189.94
2023-04-26T15:27:39.280Z,96191.63
2023-04-26T15:30:09.506Z,96184.78
2023-04-26T15:32:38.226Z,96183.81
2023-04-26T15:35:07.530Z,96190.38
2023-04-26T15:37:38.051Z,96186.69
2023-04-26T15:40:10.488Z,96177.34
2023-04-26T15:42:40.632Z,96187.31
2023-04-26T15:45:10.037Z,96184.09
2023-04-26T15:47:38.407Z,96175.63
2023-04-26T15:50:08.039Z,96179.38
2023-04-26T15:52:38.893Z,96181.25
2023-04-26T15:55:08.262Z,96186.19
2023-04-26T15:57:36.793Z,96184.81
2023-04-26T16:00:09.660Z,96181.31
2023-04-26T16:02:38.114Z,96194.03
2023-04-26T16:05:08.366Z,96187.03
2023-04-26T16:07:38.744Z,96186.88
2023-04-26T16:10:09.166Z,96186.13
2023-04-26T16:12:39.678Z,96180.00
2023-04-26T16:15:10.435Z,96190.50
2023-04-26T16:17:38.905Z,96197.63
2023-04-26T16:20:08.855Z,96191.69
2023-04-26T16:22:37.577Z,96190.81
2023-04-26T16:25:06.838Z,96186.59
2023-04-26T16:27:35.355Z,96190.03
2023-04-26T16:30:03.929Z,96184.81
2023-04-26T16:32:34.174Z,96196.28
2023-04-26T16:35:02.579Z,96198.81
2023-04-26T16:37:31.478Z,96198.78
2023-04-26T16:40:00.238Z,96188.22
2023-04-26T16:42:31.018Z,96198.19
2023-04-26T16:44:59.276Z,96187.75
2023-04-26T16:47:27.638Z,96186.66
2023-04-26T16:49:57.298Z,96195.72
2023-04-26T16:52:25.623Z,96182.47
2023-04-26T16:54:54.016Z,96183.66
2023-04-26T16:57:22.263Z,96180.50
2023-04-26T16:59:51.475Z,96183.22
2023-04-26T17:02:19.950Z,96187.47
2023-04-26T17:04:50.026Z,96190.88
2023-04-26T17:07:19.886Z,96191.34
2023-04-26T17:09:48.107Z,96195.50
2023-04-26T17:12:16.397Z,96196.75
2023-04-26T17:14:44.628Z,96199.59
2023-04-26T17:17:12.901Z,96197.59
2023-04-26T17:19:41.171Z,96208.09
2023-04-26T17:22:09.400Z,96204.53
2023-04-26T17:24:39.026Z,96203.56
2023-04-26T17:27:08.195Z,96207.00
2023-04-26T17:29:36.449Z,96205.59
2023-04-26T17:32:04.913Z,96216.94
2023-04-26T17:34:33.376Z,96207.13
2023-04-26T17:37:01.676Z,96218.06
2023-04-26T17:39:29.974Z,96213.59
2023-04-26T17:41:59.543Z,96220.25
2023-04-26T17:44:27.795Z,96221.09
2023-04-26T17:46:56.000Z,96218.69
2023-04-26T17:49:25.821Z,96224.94
2023-04-26T17:51:54.135Z,96232.38
2023-04-26T17:54:22.361Z,96242.03
2023-04-26T17:56:50.904Z,96237.94
2023-04-26T17:59:20.461Z,96232.19
2023-04-26T18:01:48.866Z,96227.38
2023-04-26T18:04:17.360Z,96231.28
2023-04-26T18:06:46.059Z,96228.41
2023-04-26T18:09:14.334Z,96233.19
2023-04-26T18:11:47.609Z,96236.28
2023-04-26T18:14:16.295Z,96240.41
2023-04-26T18:16:46.295Z,96248.44
2023-04-26T18:19:14.598Z,96250.88
2023-04-26T18:21:42.915Z,96265.91
2023-04-26T18:24:11.284Z,96270.03
2023-04-26T18:26:41.040Z,96267.94
2023-04-26T18:29:09.522Z,96269.16
2023-04-26T18:31:37.844Z,96266.22
2023-04-26T18:34:07.841Z,96264.81
2023-04-26T18:36:36.378Z,96267.06
2023-04-26T18:39:04.926Z,96269.31
2023-04-26T18:41:33.346Z,96278.56
2023-04-26T18:44:01.641Z,96277.13
2023-04-26T18:46:29.980Z,96275.50
2023-04-26T18:48:58.367Z,96281.41
2023-04-26T18:51:27.970Z,96278.53
2023-04-26T18:53:56.922Z,96282.66
2023-04-26T18:56:25.534Z,96285.31
2023-04-26T18:58:53.810Z,96283.50
2023-04-26T19:01:22.220Z,96281.63
2023-04-26T19:03:50.633Z,96291.72
2023-04-26T19:06:19.016Z,96292.13
2023-04-26T19:08:48.669Z,96289.22
2023-04-26T19:11:17.017Z,96292.31
2023-04-26T19:13:45.304Z,96291.09
2023-04-26T19:16:13.583Z,96292.69
2023-04-26T19:18:44.481Z,96297.84
2023-04-26T19:21:12.769Z,96299.00
2023-04-26T19:23:41.032Z,96293.03
2023-04-26T19:26:13.165Z,96295.50
2023-04-26T19:28:42.299Z,96293.63
2023-04-26T19:31:10.727Z,96305.50
2023-04-26T19:33:40.387Z,96303.72
2023-04-26T19:36:10.441Z,96315.78
2023-04-26T19:38:38.729Z,96314.91
2023-04-26T19:41:07.053Z,96306.03
2023-04-26T19:43:36.701Z,96312.34
2023-04-26T19:46:12.172Z,96311.91
2023-04-26T19:48:40.454Z,96313.44
2023-04-26T19:51:08.876Z,96319.41
2023-04-26T19:53:37.098Z,96312.09
2023-04-26T19:56:05.603Z,96314.13
2023-04-26T19:58:33.902Z,96309.72
2023-04-26T20:01:03.681Z,96317.56
2023-04-26T20:03:33.278Z,96313.06
2023-04-26T20:06:01.857Z,96317.25
2023-04-26T20:08:31.383Z,96317.31
2023-04-26T20:11:03.471Z,96318.47
2023-04-26T20:13:31.777Z,96310.31
2023-04-26T20:16:00.769Z,96313.19
2023-04-26T20:18:30.838Z,96318.25
2023-04-26T20:20:59.140Z,96316.00
2023-04-26T20:23:27.466Z,96318.94
2023-04-26T20:25:55.784Z,96323.44
2023-04-26T20:28:24.544Z,96315.19
2023-04-26T20:30:52.892Z,96324.28
2023-04-26T20:33:21.374Z,96322.72
2023-04-26T20:35:54.229Z,96309.69
2023-04-26T20:38:23.226Z,96317.72
2023-04-26T20:40:51.623Z,96319.59
2023-04-26T20:43:19.986Z,96319.25
2023-04-26T20:45:48.298Z,96330.00
2023-04-26T20:48:16.562Z,96330.09
2023-04-26T20:50:44.881Z,96332.38
2023-04-26T20:53:14.526Z,96334.56
2023-04-26T20:55:42.746Z,96339.34
2023-04-26T20:58:11.089Z,96349.72
2023-04-26T21:00:39.373Z,96347.22
2023-04-26T21:03:08.426Z,96348.91
2023-04-26T21:05:36.854Z,96350.47
2023-04-26T21:08:06.027Z,96349.28
2023-04-26T21:10:35.715Z,96344.91
2023-04-26T21:13:04.123Z,96354.19
2023-04-26T21:15:32.432Z,96346.19
2023-04-26T21:18:01.052Z,96350.06
2023-04-26T21:20:29.358Z,96347.75
2023-04-26T21:22:57.571Z,96349.78
2023-04-26T21:25:27.919Z,96344.50
2023-04-26T21:27:58.728Z,96353.81
2023-04-26T21:30:26.997Z,96352.03
2023-04-26T21:32:58.307Z,96348.22
2023-04-26T21:35:26.830Z,96342.72
2023-04-26T21:37:55.079Z,96340.00
2023-04-26T21:40:23.328Z,96332.56
2023-04-26T21:43:04.022Z,96325.22
2023-04-26T21:45:35.257Z,96333.50
2023-04-26T21:48:03.720Z,96335.03
2023-04-26T21:50:32.005Z,96345.97
2023-04-26T21:53:00.235Z,96345.47
2023-04-26T21:55:28.452Z,96343.94
2023-04-26T21:57:56.752Z,96347.88
2023-04-26T22:00:27.159Z,96346.06
2023-04-26T22:02:56.990Z,96345.41
2023-04-26T22:05:25.972Z,96353.00
2023-04-26T22:07:54.529Z,96352.47
2023-04-26T22:10:22.842Z,96355.28
2023-04-26T22:12:51.358Z,96350.34
2023-04-26T22:15:19.889Z,96344.94
2023-04-26T22:17:48.134Z,96352.47
2023-04-26T22:20:17.806Z,96349.97
2023-04-26T22:22:46.273Z,96348.81
2023-04-26T22:25:14.539Z,96355.59
2023-04-26T22:27:42.853Z,96360.91
2023-04-26T22:30:22.865Z,96352.84
2023-04-26T22:32:54.751Z,96353.19
2023-04-26T22:35:25.548Z,96350.53
2023-04-26T22:37:53.845Z,96357.34
2023-04-26T22:40:22.144Z,96356.41
2023-04-26T22:42:50.489Z,96365.22
2023-04-26T22:45:18.822Z,96356.88
2023-04-26T22:47:47.224Z,96354.66
2023-04-26T22:50:15.476Z,96358.81
2023-04-26T22:52:45.102Z,96363.56
2023-04-26T22:55:13.409Z,96361.56
2023-04-26T22:57:41.717Z,96364.97
2023-04-26T23:00:12.460Z,96362.09
2023-04-26T23:02:41.137Z,96359.19
2023-04-26T23:05:10.607Z,96370.06
2023-04-26T23:07:39.274Z,96360.09
2023-04-26T23:10:09.858Z,96356.50
2023-04-26T23:12:38.209Z,96365.16
2023-04-26T23:15:07.470Z,96362.94
2023-04-26T23:17:35.751Z,96379.00
2023-04-26T23:20:11.948Z,96368.38
2023-04-26T23:22:41.935Z,96365.41
2023-04-26T23:25:11.892Z,96364.69
2023-04-26T23:27:40.092Z,96362.84
2023-04-26T23:30:09.326Z,96359.44
2023-04-26T23:32:37.673Z,96356.31
2023-04-26T23:35:06.813Z,96363.03
2023-04-26T23:37:35.327Z,96354.31
2023-04-26T23:40:05.608Z,96354.97
2023-04-26T23:42:35.558Z,96360.25
2023-04-26T23:45:04.420Z,96353.59
2023-04-26T23:47:32.700Z,96347.81
2023-04-26T23:50:00.995Z,96346.03
2023-04-26T23:52:29.260Z,96356.78
2023-04-26T23:54:57.489Z,96354.69
2023-04-26T23:57:25.825Z,96351.81
2023-04-26T23:59:55.693Z,96346.50
